Time;durP1;ratioP1;P1;durP2;ratioP2;P2;SDS_P1;SDS_P2;PMS_P1;PMS_P2;Temp;Humidity;BMP_temperature;BMP_pressure;BME280_temperature;BME280_humidity;BME280_pressure;Samples;Min_cycle;Max_cycle;Signal;HPM_P1;HPM_P2
2022/09/21 00:00:24;;;;;;;12.23;9.60;;;;;;;9.86;95.78;96894.58;1796125;79;21365;-83
2022/09/21 00:02:56;;;;;;;11.48;9.80;;;;;;;9.84;95.81;96899.13;1796260;80;21414;-83
2022/09/21 00:05:23;;;;;;;11.68;9.33;;;;;;;9.83;96.12;96887.93;1798284;80;21361;-83
2022/09/21 00:07:48;;;;;;;13.03;9.88;;;;;;;9.83;95.92;96897.02;1798102;79;20992;-83
2022/09/21 00:10:15;;;;;;;10.03;8.95;;;;;;;9.83;95.72;96900.09;1796863;80;20967;-83
2022/09/21 00:12:41;;;;;;;9.48;8.48;;;;;;;9.79;95.61;96903.52;1732763;80;20983;-83
2022/09/21 00:15:09;;;;;;;12.43;9.23;;;;;;;9.80;95.84;96896.05;1755880;81;21004;-84
2022/09/21 00:17:35;;;;;;;12.07;9.40;;;;;;;9.77;95.68;96896.88;1743897;80;21378;-84
2022/09/21 00:20:03;;;;;;;10.35;8.93;;;;;;;9.74;96.12;96901.06;1763634;81;21062;-84
2022/09/21 00:22:28;;;;;;;11.03;8.93;;;;;;;9.68;95.67;96905.63;1795117;79;20984;-84
2022/09/21 00:24:55;;;;;;;11.75;9.13;;;;;;;9.65;95.91;96905.95;1793587;79;20909;-83
2022/09/21 00:27:21;;;;;;;11.10;8.85;;;;;;;9.65;96.04;96910.66;1793036;80;20964;-83
2022/09/21 00:29:48;;;;;;;12.35;8.80;;;;;;;9.65;95.98;96904.17;1788155;80;21040;-84
2022/09/21 00:32:14;;;;;;;11.53;8.78;;;;;;;9.66;96.20;96900.59;1769635;79;20942;-83
2022/09/21 00:34:40;;;;;;;11.28;9.53;;;;;;;9.68;96.27;96904.33;1791658;79;21343;-83
2022/09/21 00:37:08;;;;;;;10.43;9.18;;;;;;;9.68;96.31;96905.14;1795311;80;20960;-83
2022/09/21 00:39:34;;;;;;;10.05;9.05;;;;;;;9.60;95.65;96902.56;1789111;79;20934;-83
2022/09/21 00:41:59;;;;;;;9.18;8.28;;;;;;;9.58;96.15;96897.50;1777471;80;21024;-83
2022/09/21 00:44:31;;;;;;;9.58;8.48;;;;;;;9.59;96.24;96902.20;1772205;79;21015;-83
2022/09/21 00:47:01;;;;;;;11.13;8.67;;;;;;;9.59;95.93;96904.31;1791513;79;21434;-83
2022/09/21 00:49:27;;;;;;;9.40;8.40;;;;;;;9.57;95.79;96907.56;1791504;80;20948;-84
2022/09/21 00:51:53;;;;;;;9.80;8.40;;;;;;;9.58;96.06;96914.86;1791841;79;21351;-84
2022/09/21 00:54:27;;;;;;;9.83;8.15;;;;;;;9.57;96.31;96917.13;1795070;80;20950;-84
2022/09/21 00:56:53;;;;;;;8.85;7.97;;;;;;;9.53;95.64;96919.24;1796604;79;21330;-84
2022/09/21 00:59:19;;;;;;;10.43;8.10;;;;;;;9.46;95.33;96906.61;1795249;80;20961;-84
2022/09/21 01:01:46;;;;;;;9.25;7.12;;;;;;;9.43;95.26;96904.31;1765746;79;21291;-85
2022/09/21 01:04:12;;;;;;;8.28;7.35;;;;;;;9.43;95.46;96908.20;1771978;79;20984;-85
2022/09/21 01:06:38;;;;;;;7.28;6.58;;;;;;;9.43;95.35;96911.28;1791050;79;20928;-85
2022/09/21 01:09:04;;;;;;;9.25;7.53;;;;;;;9.39;95.30;96905.61;1788766;79;20975;-84
2022/09/21 01:11:41;;;;;;;7.65;6.85;;;;;;;9.39;95.53;96913.39;1793052;79;20972;-84
2022/09/21 01:14:27;;;;;;;7.75;6.95;;;;;;;9.35;95.83;96915.98;1794193;79;21410;-84
2022/09/21 01:17:17;;;;;;;7.83;6.85;;;;;;;9.38;95.87;96914.85;1794326;78;21080;-84
2022/09/21 01:20:11;;;;;;;11.08;7.85;;;;;;;9.39;95.93;96911.28;1754839;81;21023;-84
2022/09/21 01:23:15;;;;;;;9.53;7.50;;;;;;;9.41;96.02;96914.04;1724443;81;21475;-84
2022/09/21 01:26:33;;;;;;;9.20;7.97;;;;;;;9.48;96.34;96912.44;1762186;81;21006;-85
2022/09/21 01:29:27;;;;;;;10.80;9.48;;;;;;;9.50;96.15;96913.57;1757934;81;21310;-84
2022/09/21 01:32:13;;;;;;;11.75;10.58;;;;;;;9.46;96.24;96914.87;1753896;80;21005;-84
2022/09/21 01:34:56;;;;;;;12.20;10.90;;;;;;;9.39;96.09;96917.77;1765225;80;21488;-84
2022/09/21 01:37:28;;;;;;;12.23;11.03;;;;;;;9.37;96.29;96922.31;1765219;80;20991;-84
2022/09/21 01:39:57;;;;;;;11.68;10.48;;;;;;;9.39;96.59;96919.88;1752568;80;20976;-84
2022/09/21 01:42:23;;;;;;;10.53;9.40;;;;;;;9.36;96.22;96921.98;1733645;80;20995;-84
2022/09/21 01:44:48;;;;;;;11.73;10.53;;;;;;;9.36;96.39;96921.50;1751689;80;20961;-84
2022/09/21 01:47:14;;;;;;;10.72;9.50;;;;;;;9.36;96.44;96925.39;1740588;80;21401;-84
2022/09/21 01:49:45;;;;;;;12.00;10.75;;;;;;;9.36;96.73;96916.80;1714694;82;20986;-85
2022/09/21 01:52:19;;;;;;;10.53;9.53;;;;;;;9.38;96.81;96915.66;1741173;80;20976;-84
2022/09/21 01:54:50;;;;;;;12.53;10.40;;;;;;;9.40;96.78;96918.09;1794994;80;21033;-84
2022/09/21 01:57:39;;;;;;;12.78;10.48;;;;;;;9.39;96.76;96916.47;1796597;79;20953;-84
2022/09/21 02:00:07;;;;;;;12.75;10.75;;;;;;;9.37;96.72;96919.23;1795098;80;20957;-84
2022/09/21 02:02:39;;;;;;;11.25;10.18;;;;;;;9.41;96.84;96919.72;1762770;79;20991;-84
2022/09/21 02:05:05;;;;;;;10.88;9.68;;;;;;;9.33;96.50;96917.94;1784006;79;21386;-84
2022/09/21 02:07:31;;;;;;;11.78;9.98;;;;;;;9.33;96.82;96929.61;1794991;80;21003;-84
2022/09/21 02:09:58;;;;;;;10.70;9.60;;;;;;;9.30;96.79;96922.16;1792657;79;21409;-84
2022/09/21 02:12:24;;;;;;;11.78;10.50;;;;;;;9.24;96.80;96929.26;1753598;80;20971;-84
2022/09/21 02:14:51;;;;;;;10.93;9.65;;;;;;;9.20;96.70;96927.48;1741708;80;20975;-84
2022/09/21 02:17:57;;;;;;;10.93;9.80;;;;;;;9.19;96.96;96921.97;1738901;81;21070;-84
2022/09/21 02:20:28;;;;;;;11.20;9.63;;;;;;;9.23;97.09;96929.74;1750287;81;21322;-84
2022/09/21 02:23:28;;;;;;;11.30;10.20;;;;;;;9.19;96.59;96931.04;1764165;80;21025;-84
2022/09/21 02:26:09;;;;;;;11.33;10.10;;;;;;;9.20;96.88;96934.44;1766781;80;20995;-84
2022/09/21 02:29:02;;;;;;;12.55;10.60;;;;;;;9.18;96.96;96932.50;1763896;80;20912;-84
2022/09/21 02:31:46;;;;;;;12.05;10.48;;;;;;;9.11;96.80;96936.68;1759913;81;21003;-83
2022/09/21 02:34:26;;;;;;;12.15;10.05;;;;;;;9.07;97.15;96929.71;1762193;81;20950;-84
2022/09/21 02:37:02;;;;;;;11.70;10.00;;;;;;;9.10;97.33;96929.39;1748795;80;20976;-83
2022/09/21 02:39:36;;;;;;;10.43;9.43;;;;;;;9.16;97.50;96921.48;1765263;81;21028;-84
2022/09/21 02:42:07;;;;;;;12.35;9.85;;;;;;;9.21;97.64;96922.61;1765170;81;21002;-83
2022/09/21 02:44:48;;;;;;;11.83;10.63;;;;;;;9.26;97.79;96928.13;1763006;80;21067;-83
2022/09/21 02:47:26;;;;;;;12.65;11.38;;;;;;;9.28;97.62;96927.50;1777235;80;21037;-83
2022/09/21 02:49:54;;;;;;;12.55;11.25;;;;;;;9.28;97.59;96926.20;1754278;81;21426;-83
2022/09/21 02:52:20;;;;;;;12.45;11.15;;;;;;;9.26;97.33;96922.94;1773884;80;20924;-84
2022/09/21 02:54:49;;;;;;;11.73;10.58;;;;;;;9.23;97.21;96932.34;1772313;80;21026;-84
2022/09/21 02:57:17;;;;;;;12.20;10.98;;;;;;;9.22;97.26;96936.39;1783082;80;21358;-84
2022/09/21 02:59:42;;;;;;;11.97;10.78;;;;;;;9.21;97.21;96937.36;1775120;79;20957;-84
2022/09/21 03:02:11;;;;;;;12.88;11.55;;;;;;;9.19;97.07;96940.60;1785992;80;21303;-83
2022/09/21 03:04:40;;;;;;;12.80;11.50;;;;;;;9.14;97.31;96946.27;1784627;79;20918;-83
2022/09/21 03:07:07;;;;;;;13.80;12.05;;;;;;;9.10;97.50;96944.95;1792145;79;20952;-84
2022/09/21 03:09:33;;;;;;;13.50;12.20;;;;;;;9.08;97.42;96941.70;1773037;79;21393;-84
2022/09/21 03:11:59;;;;;;;13.93;11.78;;;;;;;9.06;97.72;96946.23;1791554;80;20977;-84
2022/09/21 03:14:25;;;;;;;16.52;12.43;;;;;;;9.07;97.75;96944.45;1792311;79;20994;-83
2022/09/21 03:16:51;;;;;;;13.08;11.65;;;;;;;9.08;97.73;96949.48;1794424;80;21038;-84
2022/09/21 03:19:16;;;;;;;13.10;11.57;;;;;;;9.08;97.81;96948.67;1743398;81;21000;-83
2022/09/21 03:21:42;;;;;;;12.23;10.88;;;;;;;9.09;97.80;96949.80;1736318;81;20985;-83
2022/09/21 03:24:08;;;;;;;12.65;11.35;;;;;;;9.12;97.89;96950.00;1732707;81;21337;-84
2022/09/21 03:26:34;;;;;;;15.25;11.60;;;;;;;9.11;97.72;96952.23;1722510;81;20969;-83
2022/09/21 03:29:00;;;;;;;13.62;12.23;;;;;;;9.11;97.83;96957.42;1724904;81;20999;-83
2022/09/21 03:31:26;;;;;;;12.73;11.48;;;;;;;9.11;97.73;96958.72;1734325;81;20941;-83
2022/09/21 03:33:52;;;;;;;12.55;11.25;;;;;;;9.10;97.77;96962.28;1730074;81;21018;-83
2022/09/21 03:36:19;;;;;;;13.22;11.85;;;;;;;9.08;97.60;96959.84;1729816;81;21096;-83
2022/09/21 03:38:45;;;;;;;13.38;11.97;;;;;;;9.10;97.72;96964.88;1744205;81;21000;-83
2022/09/21 03:41:13;;;;;;;14.38;12.70;;;;;;;9.05;97.46;96963.25;1747926;81;21027;-83
2022/09/21 03:43:38;;;;;;;15.60;13.85;;;;;;;9.00;97.62;96967.13;1739012;81;20978;-83
2022/09/21 03:46:04;;;;;;;15.15;13.55;;;;;;;8.92;97.71;96961.91;1744765;81;20996;-83
2022/09/21 03:48:31;;;;;;;16.65;14.30;;;;;;;8.86;97.86;96970.31;1736627;81;21709;-83
2022/09/21 03:50:57;;;;;;;16.10;13.72;;;;;;;8.83;98.18;96970.63;1755025;81;21447;-83
2022/09/21 03:53:23;;;;;;;14.90;13.03;;;;;;;8.85;98.28;96963.52;1738563;81;20975;-83
2022/09/21 03:55:48;;;;;;;16.25;13.90;;;;;;;8.91;98.56;96968.55;1739557;81;21078;-83
2022/09/21 03:58:14;;;;;;;14.85;12.47;;;;;;;8.96;98.62;96968.91;1727537;81;21020;-83
2022/09/21 04:00:41;;;;;;;15.85;14.25;;;;;;;9.02;98.80;96962.59;1735345;81;21052;-83
2022/09/21 04:03:07;;;;;;;15.45;13.28;;;;;;;9.04;98.56;96967.63;1734459;81;21019;-83
2022/09/21 04:05:33;;;;;;;15.93;14.33;;;;;;;9.04;98.54;96968.92;1753849;81;21023;-83
2022/09/21 04:08:01;;;;;;;17.42;15.23;;;;;;;9.02;98.47;96981.23;1733073;81;21318;-83
2022/09/21 04:10:28;;;;;;;16.57;14.33;;;;;;;9.00;98.32;96985.27;1735324;81;21036;-83
2022/09/21 04:13:00;;;;;;;17.02;14.33;;;;;;;9.00;98.36;96985.27;1713973;81;20987;-83
2022/09/21 04:15:26;;;;;;;16.45;13.98;;;;;;;9.01;98.50;96984.30;1731949;81;21065;-84
2022/09/21 04:17:52;;;;;;;16.02;14.23;;;;;;;9.00;98.08;96987.05;1754866;80;21067;-84
2022/09/21 04:20:19;;;;;;;15.32;13.65;;;;;;;9.02;98.19;96992.41;1765105;80;21339;-84
2022/09/21 04:22:45;;;;;;;17.73;14.73;;;;;;;8.98;98.25;96982.03;1765075;80;20975;-83
2022/09/21 04:25:12;;;;;;;18.48;15.32;;;;;;;8.94;98.10;96987.17;1759327;80;20999;-84
2022/09/21 04:42:43;;;;;;;17.82;14.75;;;;;;;9.44;96.58;96991.56;1768042;80;22279;-86
2022/09/21 04:45:11;;;;;;;17.20;13.60;;;;;;;9.38;96.26;96996.55;1808086;78;21106;-86
2022/09/21 04:47:37;;;;;;;15.70;13.88;;;;;;;9.25;96.05;96999.11;1810467;77;21366;-86
2022/09/21 04:50:04;;;;;;;17.05;14.45;;;;;;;9.15;96.63;96996.34;1806829;78;20975;-86
2022/09/21 04:52:29;;;;;;;18.10;14.30;;;;;;;9.16;97.24;97004.45;1781333;80;20957;-86
2022/09/21 04:54:55;;;;;;;19.62;14.60;;;;;;;9.14;97.11;97000.72;1798638;79;21318;-86
2022/09/21 04:57:21;;;;;;;17.10;14.30;;;;;;;9.13;97.12;97003.47;1799032;79;20958;-86
2022/09/21 04:59:47;;;;;;;17.75;15.70;;;;;;;9.10;97.29;97008.94;1785863;79;21027;-86
2022/09/21 05:02:12;;;;;;;16.77;14.87;;;;;;;9.09;97.40;97006.84;1786108;79;21254;-86
2022/09/21 05:04:38;;;;;;;19.48;15.93;;;;;;;9.12;97.80;97010.92;1786314;79;21002;-86
2022/09/21 05:07:04;;;;;;;17.95;14.80;;;;;;;9.16;98.04;97013.52;1799448;79;21328;-86
2022/09/21 05:12:14;;;;;;;18.95;14.83;;;;;;;9.02;97.43;97018.33;1795801;79;21039;-86
2022/09/21 05:14:42;;;;;;;16.90;14.65;;;;;;;8.96;97.40;97020.74;1793942;79;21007;-86
2022/09/21 05:17:08;;;;;;;18.90;14.40;;;;;;;8.91;97.59;97019.89;1781648;79;21033;-86
2022/09/21 05:19:34;;;;;;;15.28;12.78;;;;;;;8.86;97.51;97018.26;1793822;79;21010;-86
2022/09/21 05:21:59;;;;;;;15.32;13.40;;;;;;;8.83;97.62;97015.98;1786231;79;20939;-86
2022/09/21 05:24:25;;;;;;;16.70;14.23;;;;;;;8.87;98.19;97015.19;1788591;79;20970;-86
2022/09/21 05:26:51;;;;;;;19.15;15.13;;;;;;;8.87;97.96;97019.88;1797211;79;20998;-86
2022/09/21 05:29:17;;;;;;;20.82;16.02;;;;;;;8.84;97.91;97021.49;1795675;79;21408;-86
2022/09/21 05:31:47;;;;;;;18.87;16.52;;;;;;;8.81;98.25;97020.52;1793359;79;21333;-86
2022/09/21 05:34:28;;;;;;;16.73;14.65;;;;;;;8.81;98.34;97021.81;1781564;79;20995;-86
2022/09/21 05:37:11;;;;;;;18.42;14.73;;;;;;;8.84;98.63;97018.91;1784158;79;21409;-85
2022/09/21 05:39:38;;;;;;;16.62;14.28;;;;;;;8.88;98.47;97027.17;1804579;79;20967;-86
2022/09/21 05:42:05;;;;;;;18.42;15.20;;;;;;;8.81;98.04;97027.48;1776487;79;21082;-85
2022/09/21 05:44:33;;;;;;;18.20;15.00;;;;;;;8.79;98.45;97028.12;1764914;80;21088;-86
2022/09/21 05:47:22;;;;;;;18.25;16.20;;;;;;;8.81;98.58;97027.48;1764238;80;20998;-87
2022/09/21 05:50:15;;;;;;;17.10;14.93;;;;;;;8.81;98.39;97036.55;1772730;80;21000;-86
2022/09/21 05:53:10;;;;;;;17.92;14.73;;;;;;;8.78;98.40;97037.64;1780302;80;21020;-86
2022/09/21 05:55:45;;;;;;;17.95;14.75;;;;;;;8.71;98.35;97037.45;1773130;79;20935;-86
2022/09/21 05:58:21;;;;;;;18.15;15.98;;;;;;;8.73;98.74;97027.75;1776361;79;21054;-86
2022/09/21 06:01:21;;;;;;;19.67;16.00;;;;;;;8.81;99.17;97033.47;1769271;79;20962;-86
2022/09/21 06:03:49;;;;;;;19.42;15.65;;;;;;;8.88;99.06;97029.77;1761528;81;21072;-85
2022/09/21 06:06:17;;;;;;;17.50;14.35;;;;;;;8.92;99.17;97032.37;1771901;80;20992;-86
2022/09/21 06:08:42;;;;;;;15.75;14.05;;;;;;;8.98;99.23;97036.46;1757242;80;20999;-86
2022/09/21 06:11:08;;;;;;;19.45;15.80;;;;;;;9.00;99.10;97027.23;1757035;81;20995;-86
2022/09/21 06:13:34;;;;;;;17.73;15.68;;;;;;;9.04;98.89;97036.31;1753459;80;21276;-86
2022/09/21 06:16:02;;;;;;;20.60;15.88;;;;;;;9.03;98.92;97034.20;1734041;82;21031;-85
2022/09/21 06:18:28;;;;;;;18.92;15.60;;;;;;;9.01;98.72;97031.45;1783084;79;20947;-85
2022/09/21 06:20:54;;;;;;;19.82;15.90;;;;;;;8.99;98.93;97034.20;1769520;80;21012;-85
2022/09/21 06:23:19;;;;;;;23.92;18.20;;;;;;;8.98;98.83;97040.84;1760130;80;21001;-85
2022/09/21 06:25:51;;;;;;;30.85;24.10;;;;;;;8.92;98.59;97043.55;1767703;80;21007;-85
2022/09/21 06:28:17;;;;;;;32.58;25.72;;;;;;;8.91;98.64;97035.92;1762016;81;20952;-86
2022/09/21 06:30:43;;;;;;;25.12;19.70;;;;;;;8.91;98.88;97038.03;1757681;81;21270;-86
2022/09/21 06:33:09;;;;;;;19.80;17.00;;;;;;;8.96;99.17;97036.30;1759891;80;20944;-86
2022/09/21 06:35:35;;;;;;;22.17;18.15;;;;;;;9.01;99.19;97034.85;1772851;81;20973;-86
2022/09/21 06:38:03;;;;;;;22.42;17.90;;;;;;;9.03;98.81;97041.98;1755154;81;20972;-87
2022/09/21 06:40:29;;;;;;;19.77;16.70;;;;;;;9.08;98.85;97042.80;1764801;81;20905;-86
2022/09/21 06:42:58;;;;;;;22.32;17.85;;;;;;;9.09;98.75;97047.02;1777950;80;21058;-86
2022/09/21 06:45:26;;;;;;;17.05;15.08;;;;;;;9.11;98.79;97046.86;1783522;80;21075;-86
2022/09/21 06:47:52;;;;;;;19.77;15.28;;;;;;;9.05;98.47;97045.72;1777190;80;21325;-86
2022/09/21 06:50:18;;;;;;;18.82;14.98;;;;;;;9.09;98.81;97053.98;1811297;77;21030;-86
2022/09/21 06:52:43;;;;;;;17.48;14.23;;;;;;;9.09;98.52;97052.69;1816128;77;21070;-86
2022/09/21 06:55:09;;;;;;;18.48;15.95;;;;;;;9.05;98.87;97063.05;1802203;77;21582;-86
2022/09/21 06:57:38;;;;;;;17.82;15.93;;;;;;;9.09;98.82;97063.06;1812895;77;20943;-86
2022/09/21 07:00:07;;;;;;;19.52;15.50;;;;;;;9.04;98.53;97068.72;1804786;78;21035;-86
2022/09/21 07:02:34;;;;;;;19.62;17.10;;;;;;;9.02;98.49;97072.77;1785984;78;21377;-86
2022/09/21 07:05:00;;;;;;;17.10;14.58;;;;;;;8.99;98.45;97071.78;1809947;77;20896;-86
2022/09/21 07:07:29;;;;;;;19.62;16.45;;;;;;;9.01;98.77;97071.14;1804834;77;21309;-86
2022/09/21 07:09:57;;;;;;;19.52;16.80;;;;;;;9.01;98.78;97076.81;1802108;78;21413;-86
2022/09/21 07:12:25;;;;;;;17.00;14.50;;;;;;;9.03;99.01;97079.57;1777222;80;21345;-86
2022/09/21 07:14:51;;;;;;;18.27;13.78;;;;;;;9.03;98.86;97080.87;1805494;78;20951;-86
2022/09/21 07:17:18;;;;;;;17.60;14.55;;;;;;;9.08;99.06;97082.17;1802071;77;21031;-86
2022/09/21 07:19:44;;;;;;;15.48;13.05;;;;;;;9.09;98.83;97085.91;1818703;77;20955;-86
2022/09/21 07:22:10;;;;;;;16.12;14.28;;;;;;;9.06;98.61;97084.92;1809448;77;21334;-86
2022/09/21 07:24:36;;;;;;;15.40;13.08;;;;;;;9.03;98.69;97080.87;1813500;78;21353;-86
2022/09/21 07:27:01;;;;;;;17.10;14.83;;;;;;;9.01;98.72;97084.10;1808109;77;20975;-85
2022/09/21 07:29:27;;;;;;;16.65;13.98;;;;;;;8.96;98.76;97092.83;1811844;77;20936;-86
2022/09/21 07:31:53;;;;;;;17.02;14.65;;;;;;;8.91;98.89;97091.16;1807956;77;21015;-86
2022/09/21 07:34:19;;;;;;;20.25;14.90;;;;;;;8.91;99.05;97092.46;1812531;78;20922;-86
2022/09/21 07:36:44;;;;;;;18.27;14.55;;;;;;;8.93;99.28;97088.41;1820716;77;21372;-86
2022/09/21 07:39:11;;;;;;;15.55;13.25;;;;;;;8.97;99.54;97085.88;1811437;78;20900;-86
2022/09/21 07:41:37;;;;;;;20.82;17.25;;;;;;;8.96;99.24;97095.42;1827983;78;21090;-86
2022/09/21 07:44:04;;;;;;;18.20;15.10;;;;;;;8.97;99.56;97094.94;1788141;80;21447;-85
2022/09/21 07:46:29;;;;;;;17.73;15.78;;;;;;;9.04;99.68;97095.94;1814136;78;21012;-86
2022/09/21 07:48:55;;;;;;;18.48;15.13;;;;;;;9.08;99.41;97093.84;1824423;79;21393;-86
2022/09/21 07:51:22;;;;;;;15.95;13.93;;;;;;;9.11;99.48;97103.89;1809555;79;21023;-86
2022/09/21 07:53:55;;;;;;;16.05;14.35;;;;;;;9.08;99.04;97097.24;1810347;79;21086;-86
2022/09/21 07:56:21;;;;;;;18.50;14.83;;;;;;;9.10;99.35;97090.61;1788773;80;20909;-86
2022/09/21 07:59:05;;;;;;;17.90;13.48;;;;;;;9.13;99.61;97099.39;1809700;78;21334;-87
2022/09/21 08:01:35;;;;;;;20.12;17.00;;;;;;;9.14;99.38;97099.72;1799362;80;21039;-86
2022/09/21 08:04:01;;;;;;;19.65;16.85;;;;;;;9.12;99.47;97100.36;1799803;80;20971;-86
2022/09/21 08:06:31;;;;;;;22.87;18.25;;;;;;;9.16;99.68;97100.38;1824565;79;21286;-86
2022/09/21 08:09:00;;;;;;;18.15;15.08;;;;;;;9.22;100.00;97102.34;1800133;80;20983;-86
2022/09/21 08:11:26;;;;;;;21.10;15.83;;;;;;;9.24;99.76;97104.28;1802055;79;21127;-86
2022/09/21 08:13:53;;;;;;;18.30;15.08;;;;;;;9.28;100.00;97097.36;1793279;80;20995;-86
2022/09/21 08:16:19;;;;;;;19.27;15.48;;;;;;;9.29;99.59;97103.36;1790716;80;20967;-86
2022/09/21 08:18:45;;;;;;;19.77;15.28;;;;;;;9.34;99.85;97101.10;1802760;80;20935;-86
2022/09/21 08:21:11;;;;;;;19.90;15.28;;;;;;;9.38;100.00;97102.41;1802603;80;20996;-87
2022/09/21 08:23:41;;;;;;;16.60;13.53;;;;;;;9.45;99.84;97103.42;1819997;77;20975;-86
2022/09/21 08:26:06;;;;;;;15.28;13.78;;;;;;;9.44;99.46;97112.17;1794098;80;20984;-86
2022/09/21 08:28:33;;;;;;;20.45;15.63;;;;;;;9.35;98.77;97109.69;1799634;80;20955;-86
2022/09/21 08:31:04;;;;;;;18.92;15.25;;;;;;;9.32;99.18;97113.41;1786870;80;21087;-87
2022/09/21 08:33:29;;;;;;;18.87;15.18;;;;;;;9.37;99.58;97114.23;1824815;78;20968;-86
2022/09/21 08:35:57;;;;;;;18.30;15.10;;;;;;;9.42;99.84;97115.87;1825368;79;20968;-86
2022/09/21 08:38:24;;;;;;;17.52;15.35;;;;;;;9.39;99.14;97123.48;1809116;79;21644;-86
2022/09/21 08:40:49;;;;;;;18.75;15.83;;;;;;;9.42;99.35;97123.16;1822807;79;20920;-85
2022/09/21 08:43:30;;;;;;;20.15;14.98;;;;;;;9.46;99.52;97120.61;1780784;79;21460;-86
2022/09/21 08:45:55;;;;;;;16.60;14.03;;;;;;;9.48;99.37;97124.34;1760843;80;21372;-86
2022/09/21 08:48:24;;;;;;;18.55;14.83;;;;;;;9.55;99.25;97124.84;1718994;82;20921;-85
2022/09/21 08:50:52;;;;;;;18.67;15.25;;;;;;;9.54;98.87;97123.22;1737643;80;21003;-86
2022/09/21 08:53:35;;;;;;;18.37;15.23;;;;;;;9.53;99.22;97119.00;1746619;80;20952;-86
2022/09/21 08:56:01;;;;;;;18.02;14.95;;;;;;;9.54;99.50;97119.81;1746208;80;21391;-86
2022/09/21 08:58:30;;;;;;;24.32;18.75;;;;;;;9.56;99.65;97121.27;1758014;80;21010;-86
2022/09/21 09:01:45;;;;;;;22.77;17.20;;;;;;;9.62;99.78;97123.75;1757250;80;21230;-86
2022/09/21 09:04:31;;;;;;;24.27;18.15;;;;;;;9.70;99.89;97126.84;1744854;80;20936;-86
2022/09/21 09:07:21;;;;;;;29.48;20.43;;;;;;;9.77;99.82;97122.17;1753930;80;21033;-85
2022/09/21 09:10:32;;;;;;;22.60;16.67;;;;;;;9.83;99.63;97116.82;1764477;80;21461;-85
2022/09/21 09:13:32;;;;;;;20.75;17.35;;;;;;;9.86;99.51;97120.39;1774717;80;21372;-86
2022/09/21 09:16:29;;;;;;;18.10;14.87;;;;;;;9.92;99.91;97120.59;1775028;80;21293;-87
2022/09/21 09:19:01;;;;;;;17.90;14.13;;;;;;;9.87;98.79;97121.53;1782364;80;21245;-86
2022/09/21 09:21:33;;;;;;;16.48;13.55;;;;;;;9.82;98.88;97125.58;1758754;80;21377;-86
2022/09/21 09:24:19;;;;;;;17.55;13.75;;;;;;;9.79;98.96;97124.61;1780469;80;20941;-86
2022/09/21 09:26:48;;;;;;;15.70;12.60;;;;;;;9.84;99.74;97130.13;1683717;82;20971;-86
2022/09/21 09:29:28;;;;;;;16.60;14.68;;;;;;;9.87;99.79;97122.02;1754277;80;20974;-86
2022/09/21 09:31:54;;;;;;;17.55;12.53;;;;;;;9.84;99.50;97129.64;1773759;80;20978;-86
2022/09/21 09:34:41;;;;;;;15.98;13.45;;;;;;;9.82;98.79;97133.37;1789090;80;20947;-85
2022/09/21 09:37:16;;;;;;;15.90;12.55;;;;;;;9.79;99.28;97128.50;1789675;80;20975;-85
2022/09/21 09:39:50;;;;;;;15.08;11.78;;;;;;;9.79;99.11;97131.91;1786885;80;20960;-86
2022/09/21 09:42:55;;;;;;;16.40;13.85;;;;;;;9.76;99.08;97130.09;1795414;80;21003;-86
2022/09/21 09:45:35;;;;;;;18.35;13.38;;;;;;;9.74;99.23;97129.44;1805017;79;20982;-86
2022/09/21 09:48:25;;;;;;;18.12;13.98;;;;;;;9.79;99.85;97133.20;1806157;79;20919;-86
2022/09/21 09:50:51;;;;;;;19.52;13.28;;;;;;;9.84;99.88;97124.45;1783354;79;21038;-85
2022/09/21 09:53:19;;;;;;;17.17;12.98;;;;;;;9.92;100.00;97122.34;1775861;79;20972;-86
2022/09/21 09:55:49;;;;;;;18.85;13.03;;;;;;;9.89;99.50;97126.07;1806270;79;21397;-85
2022/09/21 09:58:39;;;;;;;14.53;12.68;;;;;;;9.91;99.65;97122.02;1810025;79;20965;-85
2022/09/21 10:01:05;;;;;;;15.43;12.73;;;;;;;9.91;99.23;97121.53;1781905;79;20971;-86
2022/09/21 10:03:30;;;;;;;19.12;14.90;;;;;;;9.97;100.00;97118.80;1796255;78;20946;-85
2022/09/21 10:05:56;;;;;;;19.92;14.43;;;;;;;10.04;100.00;97116.37;1790804;79;21116;-86
2022/09/21 10:08:42;;;;;;;15.48;13.18;;;;;;;10.13;100.00;97121.91;1786647;80;20951;-85
2022/09/21 10:11:11;;;;;;;18.85;14.25;;;;;;;10.21;99.92;97119.34;1795382;79;21012;-86
2022/09/21 10:13:39;;;;;;;18.25;14.10;;;;;;;10.22;100.00;97117.88;1795481;79;21400;-85
2022/09/21 10:16:15;;;;;;;16.95;14.73;;;;;;;10.25;99.16;97114.63;1816053;79;21324;-85
2022/09/21 10:18:57;;;;;;;17.42;15.03;;;;;;;10.23;98.74;97115.59;1804327;79;21354;-85
2022/09/21 10:21:26;;;;;;;18.35;13.83;;;;;;;10.21;99.47;97113.66;1763547;79;21346;-85
2022/09/21 10:23:58;;;;;;;14.25;12.25;;;;;;;10.22;99.32;97111.87;1793770;80;21321;-86
2022/09/21 10:26:24;;;;;;;18.15;14.25;;;;;;;10.19;98.87;97110.87;1797171;79;20999;-85
2022/09/21 10:29:01;;;;;;;18.27;14.73;;;;;;;10.23;99.61;97110.89;1781540;79;20986;-86
2022/09/21 10:31:28;;;;;;;16.55;12.90;;;;;;;10.26;99.55;97111.89;1782836;79;21409;-86
2022/09/21 10:34:08;;;;;;;13.98;11.53;;;;;;;10.26;99.30;97111.08;1806162;79;21459;-85
2022/09/21 10:36:36;;;;;;;13.88;12.37;;;;;;;10.30;99.46;97110.59;1797095;78;20940;-86
2022/09/21 10:39:30;;;;;;;15.13;12.78;;;;;;;10.31;99.01;97114.00;1801383;78;20997;-86
2022/09/21 10:42:10;;;;;;;15.10;11.15;;;;;;;10.32;99.01;97109.94;1786747;80;20984;-86
2022/09/21 10:44:51;;;;;;;15.45;11.65;;;;;;;10.37;98.74;97112.85;1797459;80;21011;-86
2022/09/21 10:47:35;;;;;;;12.58;10.72;;;;;;;10.37;98.70;97113.34;1799173;80;20960;-86
2022/09/21 10:50:09;;;;;;;13.90;11.57;;;;;;;10.36;98.84;97115.13;1799226;80;21318;-86
2022/09/21 10:52:41;;;;;;;13.13;11.60;;;;;;;10.28;98.44;97113.03;1823181;78;20995;-85
2022/09/21 10:55:19;;;;;;;12.77;11.30;;;;;;;10.24;98.79;97115.11;1781095;79;21010;-86
2022/09/21 10:57:45;;;;;;;15.15;11.60;;;;;;;10.24;98.69;97111.22;1792351;78;20958;-86
2022/09/21 11:00:28;;;;;;;13.85;11.75;;;;;;;10.29;98.96;97115.95;1793249;79;21397;-86
2022/09/21 11:02:55;;;;;;;13.35;11.95;;;;;;;10.29;98.22;97115.45;1807940;79;21345;-86
2022/09/21 11:05:34;;;;;;;16.87;13.78;;;;;;;10.20;98.21;97098.20;1807974;79;20912;-86
2022/09/21 11:08:17;;;;;;;17.95;14.13;;;;;;;10.38;98.87;97116.26;1807922;79;20912;-86
2022/09/21 11:11:01;;;;;;;14.03;11.97;;;;;;;10.39;98.83;97117.39;1806584;79;21010;-86
2022/09/21 11:13:41;;;;;;;17.02;13.75;;;;;;;10.41;98.85;97116.77;1805521;79;21035;-85
2022/09/21 11:16:19;;;;;;;15.43;12.37;;;;;;;10.43;98.39;97123.91;1797189;79;20913;-85
2022/09/21 11:19:05;;;;;;;12.73;11.00;;;;;;;10.44;99.26;97116.44;1823113;78;21023;-86
2022/09/21 11:21:36;;;;;;;12.70;10.10;;;;;;;10.48;99.15;97115.13;1798829;80;20959;-85
2022/09/21 11:24:26;;;;;;;11.73;9.60;;;;;;;10.49;98.57;97118.05;1796865;80;20951;-85
2022/09/21 11:27:03;;;;;;;11.70;10.05;;;;;;;10.51;98.56;97120.00;1738627;81;20958;-85
2022/09/21 11:29:55;;;;;;;10.40;9.25;;;;;;;10.55;99.01;97123.56;1823268;78;20962;-85
2022/09/21 11:32:54;;;;;;;11.38;9.15;;;;;;;10.59;98.66;97116.59;1798849;80;20971;-85
2022/09/21 11:35:44;;;;;;;9.60;8.68;;;;;;;10.67;98.88;97115.28;1767893;80;20987;-86
2022/09/21 11:38:58;;;;;;;10.35;8.60;;;;;;;10.81;99.13;97109.91;1776067;80;21023;-86
2022/09/21 11:41:51;;;;;;;9.40;8.40;;;;;;;10.94;98.97;97110.70;1826302;78;20945;-85
2022/09/21 11:44:49;;;;;;;10.48;9.45;;;;;;;11.08;99.41;97106.92;1778747;79;21018;-86
2022/09/21 11:47:43;;;;;;;11.10;9.98;;;;;;;11.20;98.84;97103.95;1749379;79;21086;-86
2022/09/21 11:50:42;;;;;;;9.28;8.38;;;;;;;11.29;99.15;97102.46;1799416;79;21026;-86
2022/09/21 11:53:15;;;;;;;12.00;10.28;;;;;;;11.50;97.43;97095.86;1800952;79;21022;-86
2022/09/21 11:55:58;;;;;;;10.78;9.50;;;;;;;11.72;97.36;97097.23;1795268;79;20992;-86
2022/09/21 11:58:44;;;;;;;11.55;9.48;;;;;;;11.83;97.42;97098.65;1802156;79;21097;-85
2022/09/21 12:01:37;;;;;;;10.58;9.20;;;;;;;11.87;96.88;97098.61;1808080;79;21075;-85
2022/09/21 12:04:14;;;;;;;16.12;13.38;;;;;;;11.93;97.72;97090.63;1805713;79;20991;-85
2022/09/21 12:06:50;;;;;;;10.80;8.73;;;;;;;11.90;96.64;97082.67;1820207;78;21007;-85
2022/09/21 12:09:42;;;;;;;8.03;7.08;;;;;;;11.83;97.09;97088.23;1821089;78;21001;-85